Time;durP1;ratioP1;P1;durP2;ratioP2;P2;SDS_P1;SDS_P2;PMS_P1;PMS_P2;Temp;Humidity;BMP_temperature;BMP_pressure;BME280_temperature;BME280_humidity;BME280_pressure;Samples;Min_cycle;Max_cycle;Signal;HPM_P1;HPM_P2
2023/06/03 00:01:57;;;;;;;8.00;5.07;;;;;;;-140.66;100.00;55571.53;5117000;28;20266;-78
2023/06/03 00:04:43;;;;;;;7.97;5.20;;;;;;;-140.66;100.00;55571.53;5108818;28;20028;-80
2023/06/03 00:07:28;;;;;;;6.72;4.90;;;;;;;-140.66;100.00;55571.53;5122658;28;20336;-78
2023/06/03 00:10:14;;;;;;;6.78;5.05;;;;;;;-140.66;100.00;55571.53;5101695;28;20065;-78
2023/06/03 00:13:00;;;;;;;7.05;4.97;;;;;;;-140.66;100.00;55571.53;5116848;28;20387;-78
2023/06/03 00:15:46;;;;;;;11.45;5.00;;;;;;;-140.66;100.00;55571.53;5116470;28;20039;-78
2023/06/03 00:18:32;;;;;;;8.60;5.28;;;;;;;-140.66;100.00;55571.53;5101726;28;20043;-78
2023/06/03 00:21:18;;;;;;;8.45;5.28;;;;;;;-140.66;100.00;55571.53;5100818;28;20078;-79
2023/06/03 00:24:04;;;;;;;9.82;4.95;;;;;;;-140.66;100.00;55571.53;5103065;28;20027;-79
2023/06/03 00:26:51;;;;;;;8.25;4.90;;;;;;;-140.66;100.00;55571.53;5116901;28;20443;-78
2023/06/03 00:29:37;;;;;;;8.50;5.25;;;;;;;-140.66;100.00;55571.53;5116361;28;20064;-77
2023/06/03 00:32:22;;;;;;;6.45;4.97;;;;;;;-140.66;100.00;55571.53;5116635;28;20108;-78
2023/06/03 00:35:08;;;;;;;5.68;4.85;;;;;;;-140.66;100.00;55571.53;5115890;28;20020;-79
2023/06/03 00:37:55;;;;;;;6.18;4.80;;;;;;;-140.66;100.00;55571.53;5116811;28;20082;-79
2023/06/03 00:40:40;;;;;;;6.40;4.78;;;;;;;-140.66;100.00;55571.53;5100937;28;20047;-79
2023/06/03 00:43:26;;;;;;;8.82;4.85;;;;;;;-140.66;100.00;55571.53;5116335;28;20031;-78
2023/06/03 00:46:15;;;;;;;7.22;4.65;;;;;;;-140.66;100.00;55571.53;5101083;28;20022;-79
2023/06/03 00:49:02;;;;;;;6.55;5.03;;;;;;;-140.66;100.00;55571.53;5111216;28;20024;-75
2023/06/03 00:51:48;;;;;;;9.55;5.22;;;;;;;-140.66;100.00;55571.53;5131568;28;20028;-76
2023/06/03 00:54:34;;;;;;;6.38;5.03;;;;;;;-140.66;100.00;55571.53;5130814;28;20077;-77
2023/06/03 00:57:21;;;;;;;9.68;4.90;;;;;;;-140.66;100.00;55571.53;5116865;28;20030;-79
2023/06/03 01:00:08;;;;;;;8.95;5.13;;;;;;;-140.66;100.00;55571.53;5116256;28;20028;-76
2023/06/03 01:02:55;;;;;;;6.97;4.90;;;;;;;-140.66;100.00;55571.53;5098216;28;20033;-78
2023/06/03 01:05:45;;;;;;;7.25;4.78;;;;;;;-140.66;100.00;55571.53;5115577;28;20098;-79
2023/06/03 01:08:39;;;;;;;9.60;5.70;;;;;;;-140.66;100.00;55571.53;5114704;28;20027;-79
2023/06/03 01:11:57;;;;;;;9.48;5.20;;;;;;;-140.66;100.00;55571.53;5114898;28;20044;-79
2023/06/03 01:14:53;;;;;;;7.90;5.00;;;;;;;-140.66;100.00;55571.53;5115277;28;20023;-78
2023/06/03 01:17:45;;;;;;;8.73;5.20;;;;;;;-140.66;100.00;55571.53;5115495;28;20059;-78
2023/06/03 01:20:32;;;;;;;11.70;5.13;;;;;;;-140.66;100.00;55571.53;5100677;28;20102;-78
2023/06/03 01:23:23;;;;;;;10.07;5.22;;;;;;;-140.66;100.00;55571.53;5114927;28;20058;-78
2023/06/03 01:26:11;;;;;;;8.73;5.20;;;;;;;-140.66;100.00;55571.53;5115264;28;20035;-78
2023/06/03 01:28:57;;;;;;;7.85;5.78;;;;;;;-140.66;100.00;55571.53;5099268;28;20042;-78
2023/06/03 01:31:43;;;;;;;8.65;5.00;;;;;;;-140.66;100.00;55571.53;5115335;28;20027;-78
2023/06/03 01:34:29;;;;;;;8.90;5.25;;;;;;;-140.66;100.00;55571.53;5100098;28;20059;-79
2023/06/03 01:37:16;;;;;;;7.07;5.50;;;;;;;-140.66;100.00;55571.53;5100906;28;20020;-79
2023/06/03 01:40:04;;;;;;;9.77;5.43;;;;;;;-140.66;100.00;55571.53;5114984;28;20020;-79
2023/06/03 01:42:50;;;;;;;8.65;5.30;;;;;;;-140.66;100.00;55571.53;5100406;28;20035;-79
2023/06/03 01:45:35;;;;;;;10.15;5.43;;;;;;;-140.66;100.00;55571.53;5105748;28;20509;-79
2023/06/03 01:48:22;;;;;;;9.43;5.47;;;;;;;-140.66;100.00;55571.53;5114546;28;20114;-80
2023/06/03 01:51:08;;;;;;;8.13;5.80;;;;;;;-140.66;100.00;55571.53;5099692;28;20023;-78
2023/06/03 01:53:53;;;;;;;8.52;5.72;;;;;;;-140.66;100.00;55571.53;5114617;28;20019;-79
2023/06/03 01:56:39;;;;;;;10.00;6.00;;;;;;;-140.66;100.00;55571.53;5099983;28;20367;-78
2023/06/03 01:59:25;;;;;;;9.90;6.22;;;;;;;-140.66;100.00;55571.53;5115046;28;20024;-79
2023/06/03 02:02:11;;;;;;;9.23;6.03;;;;;;;-140.66;100.00;55571.53;5100548;28;20020;-78
2023/06/03 02:04:57;;;;;;;11.27;7.40;;;;;;;-140.66;100.00;55571.53;5115244;28;20023;-78
2023/06/03 02:07:42;;;;;;;12.00;7.03;;;;;;;-140.66;100.00;55571.53;5099667;28;20359;-78
2023/06/03 02:10:28;;;;;;;7.90;6.25;;;;;;;-140.66;100.00;55571.53;5099405;28;20032;-78
2023/06/03 02:13:14;;;;;;;7.60;6.65;;;;;;;-140.66;100.00;55571.53;5114428;28;20329;-78
2023/06/03 02:16:00;;;;;;;9.35;6.63;;;;;;;-140.66;100.00;55571.53;5114716;28;20070;-78
2023/06/03 02:18:45;;;;;;;9.07;6.45;;;;;;;-140.66;100.00;55571.53;5114776;28;20027;-78
2023/06/03 02:21:31;;;;;;;8.40;6.57;;;;;;;-140.66;100.00;55571.53;5100056;28;20456;-79
2023/06/03 02:24:17;;;;;;;9.02;6.75;;;;;;;-140.66;100.00;55571.53;5099744;28;20034;-77
2023/06/03 02:27:04;;;;;;;9.88;6.78;;;;;;;-140.66;100.00;55571.53;5099773;28;20027;-77
2023/06/03 02:29:51;;;;;;;12.40;7.10;;;;;;;-140.66;100.00;55571.53;5099366;28;20032;-78
2023/06/03 02:32:36;;;;;;;11.55;7.43;;;;;;;-140.66;100.00;55571.53;5099780;28;20082;-78
2023/06/03 02:35:22;;;;;;;10.35;8.05;;;;;;;-140.66;100.00;55571.53;5114148;28;20027;-78
2023/06/03 02:38:08;;;;;;;9.80;7.85;;;;;;;-140.66;100.00;55571.53;5100044;28;20452;-78
2023/06/03 02:40:54;;;;;;;9.80;7.82;;;;;;;-140.66;100.00;55571.53;5116973;28;20028;-78
2023/06/03 02:43:41;;;;;;;10.15;7.70;;;;;;;-140.66;100.00;55571.53;5118318;28;20062;-79
2023/06/03 02:46:27;;;;;;;10.27;7.63;;;;;;;-140.66;100.00;55571.53;5117525;28;20752;-79
2023/06/03 02:49:14;;;;;;;12.52;7.38;;;;;;;-140.66;100.00;55571.53;5117957;28;20027;-79
2023/06/03 02:51:59;;;;;;;14.48;7.45;;;;;;;-140.66;100.00;55571.53;5118375;28;20410;-78
2023/06/03 02:54:45;;;;;;;11.82;7.65;;;;;;;-140.66;100.00;55571.53;5117716;28;20182;-78
2023/06/03 02:57:31;;;;;;;11.00;7.82;;;;;;;-140.66;100.00;55571.53;5102993;28;20359;-79
2023/06/03 03:00:17;;;;;;;10.95;6.95;;;;;;;-140.66;100.00;55571.53;5117844;28;20023;-77
2023/06/03 03:03:03;;;;;;;10.13;7.57;;;;;;;-140.66;100.00;55571.53;5102710;28;20417;-77
2023/06/03 03:05:49;;;;;;;11.68;7.85;;;;;;;-140.66;100.00;55571.53;5103407;28;20035;-78
2023/06/03 03:08:35;;;;;;;13.23;8.38;;;;;;;-140.66;100.00;55571.53;5117402;28;20383;-78
2023/06/03 03:11:21;;;;;;;10.48;7.80;;;;;;;-140.66;100.00;55571.53;5116519;28;20479;-78
2023/06/03 03:14:07;;;;;;;13.90;8.10;;;;;;;-140.66;100.00;55571.53;5118036;28;20463;-78
2023/06/03 03:16:53;;;;;;;15.05;8.00;;;;;;;-140.66;100.00;55571.53;5117498;28;20027;-78
2023/06/03 03:19:38;;;;;;;11.88;8.57;;;;;;;-140.66;100.00;55571.53;5119041;28;20020;-78
2023/06/03 03:22:27;;;;;;;16.00;8.55;;;;;;;-140.66;100.00;55571.53;5117370;28;20027;-79
2023/06/03 03:25:13;;;;;;;11.40;8.10;;;;;;;-140.66;100.00;55571.53;5102512;28;20026;-79
2023/06/03 03:27:59;;;;;;;12.82;8.48;;;;;;;-140.66;100.00;55571.53;5117128;28;20055;-78
2023/06/03 03:30:46;;;;;;;12.07;8.05;;;;;;;-140.66;100.00;55571.53;5117949;28;20036;-78
2023/06/03 03:33:32;;;;;;;11.45;8.65;;;;;;;-140.66;100.00;55571.53;5117532;28;20031;-79
2023/06/03 03:36:25;;;;;;;13.57;8.13;;;;;;;-140.66;100.00;55571.53;5102271;28;20035;-78
2023/06/03 03:39:11;;;;;;;12.45;8.52;;;;;;;-140.66;100.00;55571.53;5117342;28;20031;-78
2023/06/03 03:41:57;;;;;;;11.70;8.82;;;;;;;-140.66;100.00;55571.53;5102459;28;20096;-78
2023/06/03 03:44:43;;;;;;;11.75;8.02;;;;;;;-140.66;100.00;55571.53;5117844;28;20019;-79
2023/06/03 03:47:29;;;;;;;14.45;9.10;;;;;;;-140.66;100.00;55571.53;5102889;28;20092;-79
2023/06/03 03:50:33;;;;;;;16.33;9.95;;;;;;;-140.66;100.00;55571.53;5102093;28;20027;-78
2023/06/03 03:53:21;;;;;;;14.30;9.20;;;;;;;-140.66;100.00;55571.53;5115647;28;20027;-78
2023/06/03 03:56:07;;;;;;;16.58;10.05;;;;;;;-140.66;100.00;55571.53;5116835;28;20032;-77
2023/06/03 03:58:55;;;;;;;15.88;9.18;;;;;;;-140.66;100.00;55571.53;5116456;28;20051;-78
2023/06/03 04:01:43;;;;;;;16.35;11.30;;;;;;;-140.66;100.00;55571.53;5101842;28;20102;-78
2023/06/03 04:04:43;;;;;;;15.23;9.45;;;;;;;-140.66;100.00;55571.53;5101368;28;20024;-78
2023/06/03 04:07:35;;;;;;;16.88;10.57;;;;;;;-140.66;100.00;55571.53;5116436;28;20028;-77
2023/06/03 04:10:23;;;;;;;15.85;10.95;;;;;;;-140.66;100.00;55571.53;5116797;28;20019;-76
2023/06/03 04:13:09;;;;;;;15.13;10.07;;;;;;;-140.66;100.00;55571.53;5117152;28;20347;-77
2023/06/03 04:16:00;;;;;;;15.25;10.20;;;;;;;-140.66;100.00;55571.53;5100920;28;20023;-78
2023/06/03 04:18:46;;;;;;;17.33;10.00;;;;;;;-140.66;100.00;55571.53;5115620;28;20031;-77
2023/06/03 04:21:37;;;;;;;17.67;11.45;;;;;;;-140.66;100.00;55571.53;5100626;28;20027;-76
2023/06/03 04:24:24;;;;;;;15.30;10.57;;;;;;;-140.66;100.00;55571.53;5116427;28;20027;-77
2023/06/03 04:27:09;;;;;;;14.23;11.00;;;;;;;-140.66;100.00;55571.53;5100458;28;20027;-78
2023/06/03 04:29:56;;;;;;;17.52;11.23;;;;;;;-140.66;100.00;55571.53;5100434;28;20034;-78
2023/06/03 04:32:42;;;;;;;15.85;10.57;;;;;;;-140.66;100.00;55571.53;5100921;28;20028;-78
2023/06/03 04:35:27;;;;;;;17.35;11.48;;;;;;;-140.66;100.00;55571.53;5116169;28;20020;-78
2023/06/03 04:38:13;;;;;;;23.67;11.82;;;;;;;-140.66;100.00;55571.53;5101062;28;20031;-78
2023/06/03 04:41:01;;;;;;;14.93;10.57;;;;;;;-140.66;100.00;55571.53;5115554;28;20073;-78
2023/06/03 04:43:47;;;;;;;20.40;10.52;;;;;;;-140.66;100.00;55571.53;5100168;28;20031;-79
2023/06/03 04:46:35;;;;;;;17.30;10.52;;;;;;;-140.66;100.00;55571.53;5115367;28;20039;-78
2023/06/03 04:49:20;;;;;;;17.40;11.32;;;;;;;-140.66;100.00;55571.53;5115702;28;20063;-77
2023/06/03 04:52:09;;;;;;;12.90;10.27;;;;;;;-140.66;100.00;55571.53;5116102;28;20055;-79
2023/06/03 04:54:55;;;;;;;19.15;9.85;;;;;;;-140.66;100.00;55571.53;5114288;28;20020;-79
2023/06/03 04:57:45;;;;;;;19.05;11.52;;;;;;;-140.66;100.00;55571.53;5100914;28;20020;-80
2023/06/03 05:00:32;;;;;;;17.05;10.77;;;;;;;-140.66;100.00;55571.53;5115101;28;20110;-79
2023/06/03 05:03:18;;;;;;;19.05;10.63;;;;;;;-140.66;100.00;55571.53;5099596;28;20042;-78
2023/06/03 05:06:08;;;;;;;16.05;10.75;;;;;;;-140.66;100.00;55571.53;5101303;28;20447;-78
2023/06/03 05:08:54;;;;;;;18.23;10.85;;;;;;;-140.66;100.00;55571.53;5115633;28;20151;-78
2023/06/03 05:11:40;;;;;;;14.68;10.35;;;;;;;-140.66;100.00;55571.53;5114229;28;20123;-78
2023/06/03 05:14:26;;;;;;;18.45;9.98;;;;;;;-140.66;100.00;55571.53;5114522;28;20076;-78
2023/06/03 05:17:12;;;;;;;12.15;8.93;;;;;;;-140.66;100.00;55571.53;5100801;28;20364;-78
2023/06/03 05:19:57;;;;;;;13.77;9.57;;;;;;;-140.66;100.00;55571.53;5114703;28;20015;-78
2023/06/03 05:22:46;;;;;;;13.05;9.52;;;;;;;-140.66;100.00;55571.53;5115969;28;20040;-78
2023/06/03 05:25:31;;;;;;;12.25;9.63;;;;;;;-140.66;100.00;55571.53;5101232;28;20313;-78
2023/06/03 05:28:17;;;;;;;18.77;10.55;;;;;;;-140.66;100.00;55571.53;5115349;28;20020;-78
2023/06/03 05:31:03;;;;;;;15.15;9.48;;;;;;;-140.66;100.00;55571.53;5114256;28;20118;-78
2023/06/03 05:33:49;;;;;;;15.82;9.38;;;;;;;-140.66;100.00;55571.53;5115698;28;20031;-79
2023/06/03 05:36:35;;;;;;;17.77;10.05;;;;;;;-140.66;100.00;55571.53;5116668;28;20463;-79
2023/06/03 05:39:21;;;;;;;15.27;9.73;;;;;;;-140.66;100.00;55571.53;5126549;28;20023;-78
2023/06/03 05:42:07;;;;;;;16.08;9.85;;;;;;;-140.66;100.00;55571.53;5101960;28;20356;-79
2023/06/03 05:44:52;;;;;;;18.23;9.63;;;;;;;-140.66;100.00;55571.53;5114537;28;20024;-79
2023/06/03 05:47:38;;;;;;;20.95;10.18;;;;;;;-140.66;100.00;55571.53;5100213;28;20028;-78
2023/06/03 05:50:24;;;;;;;16.42;9.52;;;;;;;-140.66;100.00;55571.53;5098928;28;20020;-79
2023/06/03 05:53:10;;;;;;;30.58;10.13;;;;;;;-140.66;100.00;55571.53;5115181;28;20139;-78
2023/06/03 05:55:56;;;;;;;18.52;8.85;;;;;;;-140.66;100.00;55571.53;5116396;28;20030;-79
2023/06/03 05:58:43;;;;;;;14.93;9.35;;;;;;;-140.66;100.00;55571.53;5111976;28;20475;-79
2023/06/03 06:01:30;;;;;;;12.70;8.45;;;;;;;-140.66;100.00;55571.53;5121298;28;20096;-78
2023/06/03 06:04:16;;;;;;;13.43;8.10;;;;;;;-140.66;100.00;55571.53;5106580;28;20042;-79
2023/06/03 06:07:02;;;;;;;12.63;8.18;;;;;;;-140.66;100.00;55571.53;5114772;28;20168;-80
2023/06/03 06:09:48;;;;;;;17.88;9.13;;;;;;;-140.66;100.00;55571.53;5100041;28;20024;-78
2023/06/03 06:12:33;;;;;;;14.73;7.28;;;;;;;-140.66;100.00;55571.53;5113969;28;20056;-79
2023/06/03 06:15:19;;;;;;;11.35;6.47;;;;;;;-140.66;100.00;55571.53;5116466;28;20053;-78
2023/06/03 06:18:05;;;;;;;10.68;6.40;;;;;;;-140.66;100.00;55571.53;5104442;28;20024;-79
2023/06/03 06:20:51;;;;;;;10.23;6.55;;;;;;;-140.66;100.00;55571.53;5119042;28;20477;-78
2023/06/03 06:23:37;;;;;;;14.60;6.80;;;;;;;-140.66;100.00;55571.53;5104270;28;20054;-79
2023/06/03 06:26:22;;;;;;;18.77;7.03;;;;;;;-140.66;100.00;55571.53;5118361;28;20035;-78
2023/06/03 06:29:08;;;;;;;15.20;6.43;;;;;;;-140.66;100.00;55571.53;5119311;28;20354;-78
2023/06/03 06:31:54;;;;;;;15.32;6.97;;;;;;;-140.66;100.00;55571.53;5118529;28;20093;-78
2023/06/03 06:34:40;;;;;;;21.63;6.47;;;;;;;-140.66;100.00;55571.53;5118174;28;20462;-79
2023/06/03 06:37:25;;;;;;;16.27;7.05;;;;;;;-140.66;100.00;55571.53;5119159;28;20035;-78
2023/06/03 06:40:18;;;;;;;14.35;6.82;;;;;;;-140.66;100.00;55571.53;5118179;28;20065;-79
2023/06/03 06:43:05;;;;;;;13.65;6.32;;;;;;;-140.66;100.00;55571.53;5103772;28;20055;-78
2023/06/03 06:45:54;;;;;;;14.00;6.45;;;;;;;-140.66;100.00;55571.53;5101809;28;20386;-78
2023/06/03 06:48:40;;;;;;;15.93;6.80;;;;;;;-140.66;100.00;55571.53;5118967;28;20499;-78
2023/06/03 06:51:28;;;;;;;19.85;6.38;;;;;;;-140.66;100.00;55571.53;5102995;28;20028;-77
2023/06/03 06:54:15;;;;;;;11.13;5.90;;;;;;;-140.66;100.00;55571.53;5118325;28;20028;-78
2023/06/03 06:57:01;;;;;;;16.15;6.10;;;;;;;-140.66;100.00;55571.53;5119361;28;20115;-78
2023/06/03 06:59:48;;;;;;;14.95;6.10;;;;;;;-140.66;100.00;55571.53;5118896;28;20422;-78
2023/06/03 07:02:33;;;;;;;9.57;5.88;;;;;;;-140.66;100.00;55571.53;5118809;28;20031;-75
2023/06/03 07:05:19;;;;;;;10.50;5.88;;;;;;;-140.66;100.00;55571.53;5121272;28;20044;-77
2023/06/03 07:08:06;;;;;;;13.20;7.22;;;;;;;-140.66;100.00;55571.53;5136043;28;20083;-77
2023/06/03 07:10:58;;;;;;;12.98;5.97;;;;;;;-140.66;100.00;55571.53;5118861;28;20480;-78
2023/06/03 07:13:44;;;;;;;24.65;6.95;;;;;;;-140.66;100.00;55571.53;5103821;28;20063;-77
2023/06/03 07:16:29;;;;;;;14.05;6.43;;;;;;;-140.66;100.00;55571.53;5102479;28;20027;-77
2023/06/03 07:19:15;;;;;;;13.48;6.40;;;;;;;-140.66;100.00;55571.53;5103462;28;20467;-77
2023/06/03 07:22:01;;;;;;;15.60;6.50;;;;;;;-140.66;100.00;55571.53;5118188;28;20440;-77
2023/06/03 07:24:47;;;;;;;8.07;5.93;;;;;;;-140.66;100.00;55571.53;5118719;28;20020;-77
2023/06/03 07:27:33;;;;;;;12.32;6.95;;;;;;;-140.66;100.00;55571.53;5118471;28;20463;-77
2023/06/03 07:30:19;;;;;;;12.13;6.55;;;;;;;-140.66;100.00;55571.53;5118164;28;20027;-78
2023/06/03 07:33:08;;;;;;;14.05;6.20;;;;;;;-140.66;100.00;55571.53;5117178;28;20053;-79
2023/06/03 07:35:56;;;;;;;13.02;6.47;;;;;;;-140.66;100.00;55571.53;5117535;28;20028;-79
2023/06/03 07:39:06;;;;;;;11.13;5.95;;;;;;;-140.66;100.00;55571.53;5117079;28;20031;-79
2023/06/03 07:41:52;;;;;;;11.13;6.00;;;;;;;-140.66;100.00;55571.53;5118214;28;20462;-78
2023/06/03 07:44:44;;;;;;;11.90;6.63;;;;;;;-140.66;100.00;55571.53;5102956;28;20038;-77
2023/06/03 07:47:30;;;;;;;31.30;6.53;;;;;;;-140.66;100.00;55571.53;5117280;28;20034;-77
2023/06/03 07:50:23;;;;;;;11.15;5.82;;;;;;;-140.66;100.00;55571.53;5116813;28;20020;-77
2023/06/03 07:53:15;;;;;;;13.98;6.32;;;;;;;-140.66;100.00;55571.53;5100728;28;20023;-77
2023/06/03 07:56:09;;;;;;;9.70;6.03;;;;;;;-140.66;100.00;55571.53;5101652;28;20079;-77
2023/06/03 07:58:55;;;;;;;13.82;6.10;;;;;;;-140.66;100.00;55571.53;5116136;28;20115;-77
2023/06/03 08:01:42;;;;;;;14.38;5.93;;;;;;;-140.66;100.00;55571.53;5102599;28;20379;-77
2023/06/03 08:04:35;;;;;;;14.05;6.45;;;;;;;-140.66;100.00;55571.53;5102232;28;20451;-78
2023/06/03 08:07:22;;;;;;;11.65;5.82;;;;;;;-140.66;100.00;55571.53;5101526;28;20041;-77
2023/06/03 08:10:21;;;;;;;19.52;6.28;;;;;;;-140.66;100.00;55571.53;5116560;28;20162;-78
2023/06/03 08:13:07;;;;;;;12.45;5.85;;;;;;;-140.66;100.00;55571.53;5102241;28;20495;-76
2023/06/03 08:15:52;;;;;;;10.93;6.18;;;;;;;-140.66;100.00;55571.53;5117198;28;20059;-78
2023/06/03 08:18:47;;;;;;;21.70;6.28;;;;;;;-140.66;100.00;55571.53;5093478;28;20031;-79
2023/06/03 08:21:33;;;;;;;13.50;6.10;;;;;;;-140.66;100.00;55571.53;5116460;28;20127;-78
2023/06/03 08:24:19;;;;;;;14.98;6.10;;;;;;;-140.66;100.00;55571.53;5116346;28;20055;-78
2023/06/03 08:27:05;;;;;;;13.65;6.55;;;;;;;-140.66;100.00;55571.53;5116324;28;20024;-79
2023/06/03 08:29:52;;;;;;;14.02;5.90;;;;;;;-140.66;100.00;55571.53;5116183;28;20015;-77
2023/06/03 08:32:38;;;;;;;10.07;6.13;;;;;;;-140.66;100.00;55571.53;5115655;28;20118;-78
2023/06/03 08:35:24;;;;;;;16.52;6.57;;;;;;;-140.66;100.00;55571.53;5116336;28;20020;-78
2023/06/03 08:38:10;;;;;;;15.10;6.10;;;;;;;-140.66;100.00;55571.53;5116312;28;20027;-78
2023/06/03 08:40:56;;;;;;;12.20;6.05;;;;;;;-140.66;100.00;55571.53;5101187;28;20038;-78
2023/06/03 08:44:01;;;;;;;11.95;5.72;;;;;;;-140.66;100.00;55571.53;5101951;28;20102;-79
2023/06/03 08:47:03;;;;;;;15.55;5.93;;;;;;;-140.66;100.00;55571.53;5100456;28;20027;-78
2023/06/03 08:50:10;;;;;;;15.63;5.82;;;;;;;-140.66;100.00;55571.53;5115816;28;20027;-78
2023/06/03 08:52:57;;;;;;;10.88;5.97;;;;;;;-140.66;100.00;55571.53;5116148;28;20039;-77
2023/06/03 08:55:45;;;;;;;12.93;6.70;;;;;;;-140.66;100.00;55571.53;5115372;28;20023;-78
2023/06/03 08:58:36;;;;;;;18.10;6.30;;;;;;;-140.66;100.00;55571.53;5115853;28;20036;-78
2023/06/03 09:01:27;;;;;;;14.85;5.88;;;;;;;-140.66;100.00;55571.53;5100530;28;20036;-79
2023/06/03 09:04:14;;;;;;;16.92;6.20;;;;;;;-140.66;100.00;55571.53;5100219;28;20023;-78
2023/06/03 09:07:03;;;;;;;12.95;6.15;;;;;;;-140.66;100.00;55571.53;5103718;28;20023;-78
2023/06/03 09:09:53;;;;;;;13.52;6.18;;;;;;;-140.66;100.00;55571.53;5116115;28;20043;-78
2023/06/03 09:12:39;;;;;;;18.55;5.97;;;;;;;-140.66;100.00;55571.53;5115847;28;20161;-78
2023/06/03 09:15:25;;;;;;;13.85;6.22;;;;;;;-140.66;100.00;55571.53;5100566;28;20028;-79
2023/06/03 09:18:13;;;;;;;18.30;6.10;;;;;;;-140.66;100.00;55571.53;5100963;28;20024;-78
2023/06/03 09:21:00;;;;;;;11.45;6.05;;;;;;;-140.66;100.00;55571.53;5100527;28;20055;-78
2023/06/03 09:23:46;;;;;;;10.93;6.03;;;;;;;-140.66;100.00;55571.53;5116315;28;20027;-78
2023/06/03 09:26:32;;;;;;;15.30;5.70;;;;;;;-140.66;100.00;55571.53;5116593;28;20024;-78
2023/06/03 09:29:18;;;;;;;13.48;5.85;;;;;;;-140.66;100.00;55571.53;5101424;28;20019;-78
2023/06/03 09:32:05;;;;;;;11.07;5.70;;;;;;;-140.66;100.00;55571.53;5102866;28;20054;-77
2023/06/03 09:34:53;;;;;;;16.25;6.35;;;;;;;-140.66;100.00;55571.53;5103295;28;20034;-79
2023/06/03 09:37:57;;;;;;;12.40;5.97;;;;;;;-140.66;100.00;55571.53;5095564;28;20027;-78
2023/06/03 09:40:43;;;;;;;13.93;5.93;;;;;;;-140.66;100.00;55571.53;5116977;28;20027;-78
2023/06/03 09:43:28;;;;;;;13.45;5.70;;;;;;;-140.66;100.00;55571.53;5102120;28;20035;-78
2023/06/03 09:46:14;;;;;;;11.32;5.80;;;;;;;-140.66;100.00;55571.53;5115556;28;20019;-78
2023/06/03 09:49:19;;;;;;;17.75;5.90;;;;;;;-140.66;100.00;55571.53;5101055;28;20032;-78
2023/06/03 09:52:11;;;;;;;12.25;5.57;;;;;;;-140.66;100.00;55571.53;5104214;28;20027;-77
2023/06/03 09:55:05;;;;;;;13.18;5.90;;;;;;;-140.66;100.00;55571.53;5104989;28;20106;-77
2023/06/03 09:58:10;;;;;;;12.90;5.72;;;;;;;-140.66;100.00;55571.53;5119527;28;20039;-77
2023/06/03 10:00:56;;;;;;;7.85;5.93;;;;;;;-140.66;100.00;55571.53;5106431;28;20028;-78
2023/06/03 10:03:57;;;;;;;9.32;5.88;;;;;;;-140.66;100.00;55571.53;5100912;28;20038;-79
2023/06/03 10:06:42;;;;;;;10.85;5.20;;;;;;;-140.66;100.00;55571.53;5125365;28;20085;-77
2023/06/03 10:09:28;;;;;;;9.55;5.82;;;;;;;-140.66;100.00;55571.53;5116447;28;20424;-77
2023/06/03 10:12:15;;;;;;;13.27;6.00;;;;;;;-140.66;100.00;55571.53;5100665;28;20126;-78
2023/06/03 10:15:01;;;;;;;12.25;6.38;;;;;;;-140.66;100.00;55571.53;5114134;28;20431;-78
2023/06/03 10:17:47;;;;;;;21.67;6.28;;;;;;;-140.66;100.00;55571.53;5108428;28;20065;-77
2023/06/03 10:20:35;;;;;;;17.08;6.00;;;;;;;-140.66;100.00;55571.53;5119102;28;20409;-78
2023/06/03 10:23:21;;;;;;;11.88;5.70;;;;;;;-140.66;100.00;55571.53;5103243;28;20371;-78
2023/06/03 10:26:08;;;;;;;10.43;6.35;;;;;;;-140.66;100.00;55571.53;5119743;28;20432;-78
2023/06/03 10:28:55;;;;;;;10.77;5.90;;;;;;;-140.66;100.00;55571.53;5101020;28;20019;-75
2023/06/03 10:31:44;;;;;;;13.38;5.95;;;;;;;-140.66;100.00;55571.53;5113345;28;20035;-75
2023/06/03 10:34:36;;;;;;;10.38;6.15;;;;;;;-140.66;100.00;55571.53;5113678;28;20023;-76
2023/06/03 10:37:24;;;;;;;13.27;5.88;;;;;;;-140.66;100.00;55571.53;5116105;28;20046;-75
2023/06/03 10:40:10;;;;;;;10.93;5.75;;;;;;;-140.66;100.00;55571.53;5114166;28;20114;-77
2023/06/03 10:42:56;;;;;;;22.92;6.18;;;;;;;-140.66;100.00;55571.53;5114838;28;20078;-77
2023/06/03 10:45:42;;;;;;;15.00;5.93;;;;;;;-140.66;100.00;55571.53;5118140;28;20016;-76
2023/06/03 10:48:30;;;;;;;26.20;6.43;;;;;;;-140.66;100.00;55571.53;5116151;28;20394;-76
2023/06/03 10:51:36;;;;;;;18.30;6.00;;;;;;;-140.66;100.00;55571.53;5120077;28;20043;-76
2023/06/03 10:54:34;;;;;;;16.00;5.88;;;;;;;-140.66;100.00;55571.53;5130411;28;20047;-76
2023/06/03 10:57:30;;;;;;;14.65;6.13;;;;;;;-140.66;100.00;55571.53;5117932;28;20158;-76
2023/06/03 11:00:54;;;;;;;15.13;5.88;;;;;;;-140.66;100.00;55571.53;5108414;28;20043;-77
2023/06/03 11:03:52;;;;;;;9.27;5.70;;;;;;;-140.66;100.00;55571.53;5114731;28;20016;-75
2023/06/03 11:06:38;;;;;;;12.73;6.00;;;;;;;-140.66;100.00;55571.53;5107286;28;20016;-76
2023/06/03 11:09:35;;;;;;;20.80;6.40;;;;;;;-140.66;100.00;55571.53;5103389;28;20066;-76
2023/06/03 11:12:20;;;;;;;21.75;6.15;;;;;;;-140.66;100.00;55571.53;5098130;28;20388;-76
2023/06/03 11:15:06;;;;;;;13.30;5.50;;;;;;;-140.66;100.00;55571.53;5101303;28;20570;-77
2023/06/03 11:18:13;;;;;;;10.25;6.00;;;;;;;-140.66;100.00;55571.53;5099277;28;20208;-76
2023/06/03 11:20:59;;;;;;;20.10;5.70;;;;;;;-140.66;100.00;55571.53;5101234;28;20361;-76
2023/06/03 11:23:45;;;;;;;12.30;6.13;;;;;;;-140.66;100.00;55571.53;5103996;28;20028;-76
2023/06/03 11:26:33;;;;;;;10.10;5.20;;;;;;;-140.66;100.00;55571.53;5093918;28;20038;-76
2023/06/03 11:32:32;;;;;;;12.20;5.72;;;;;;;-140.66;100.00;55571.53;5098644;28;20051;-75
2023/06/03 11:35:28;;;;;;;12.98;5.85;;;;;;;-140.66;100.00;55571.53;5098806;28;20031;-75
2023/06/03 11:38:14;;;;;;;15.38;5.80;;;;;;;-140.66;100.00;55571.53;5099272;28;20024;-75
2023/06/03 11:41:00;;;;;;;12.77;5.15;;;;;;;-140.66;100.00;55571.53;5099114;28;20421;-76
2023/06/03 11:44:20;;;;;;;16.55;5.68;;;;;;;-140.66;100.00;55571.53;5098493;28;20115;-75
2023/06/03 11:47:07;;;;;;;13.93;5.82;;;;;;;-140.66;100.00;55571.53;5100486;28;20024;-76
2023/06/03 11:49:52;;;;;;;17.73;5.55;;;;;;;-140.66;100.00;55571.53;5082343;28;20460;-73
2023/06/03 11:52:38;;;;;;;9.05;5.38;;;;;;;-140.66;100.00;55571.53;5110376;28;20035;-76
2023/06/03 11:55:26;;;;;;;8.68;5.10;;;;;;;-140.66;100.00;55571.53;5102401;28;20027;-75
2023/06/03 11:58:14;;;;;;;10.13;5.30;;;;;;;-140.66;100.00;55571.53;5101453;28;20024;-76
2023/06/03 12:01:08;;;;;;;9.95;5.47;;;;;;;-140.66;100.00;55571.53;5103411;28;20466;-76
2023/06/03 12:04:02;;;;;;;11.50;5.20;;;;;;;-140.66;100.00;55571.53;5117492;28;20031;-74
2023/06/03 12:06:47;;;;;;;10.98;5.20;;;;;;;-140.66;100.00;55571.53;5101010;28;20102;-75
2023/06/03 12:09:34;;;;;;;10.38;5.45;;;;;;;-140.66;100.00;55571.53;5117943;28;20032;-75
2023/06/03 12:12:20;;;;;;;14.32;5.68;;;;;;;-140.66;100.00;55571.53;5102273;28;20122;-76
2023/06/03 12:15:06;;;;;;;17.40;5.75;;;;;;;-140.66;100.00;55571.53;5118118;28;20028;-76
2023/06/03 12:17:52;;;;;;;18.25;5.50;;;;;;;-140.66;100.00;55571.53;5101668;28;20106;-75
2023/06/03 12:20:38;;;;;;;14.90;5.30;;;;;;;-140.66;100.00;55571.53;5117419;28;20467;-75
2023/06/03 12:23:24;;;;;;;20.50;5.90;;;;;;;-140.66;100.00;55571.53;5115573;28;20035;-77
2023/06/03 12:26:10;;;;;;;13.10;6.10;;;;;;;-140.66;100.00;55571.53;5116412;28;20016;-75
2023/06/03 12:29:10;;;;;;;13.27;4.97;;;;;;;-140.66;100.00;55571.53;5115672;28;20032;-77
2023/06/03 12:32:00;;;;;;;13.52;5.03;;;;;;;-140.66;100.00;55571.53;5115541;28;20480;-76
2023/06/03 12:34:46;;;;;;;11.32;5.57;;;;;;;-140.66;100.00;55571.53;5115042;28;20092;-76
2023/06/03 12:37:33;;;;;;;16.20;5.82;;;;;;;-140.66;100.00;55571.53;5115676;28;20023;-75
2023/06/03 12:40:26;;;;;;;16.65;6.05;;;;;;;-140.66;100.00;55571.53;5099264;28;20023;-76